createdAt,value
2023-03-10T00:48:51.382Z,1.25
2023-03-10T00:50:50.946Z,1.26
2023-03-10T00:51:51.065Z,1.24
2023-03-10T00:52:51.056Z,1.23
2023-03-10T00:53:51.384Z,1.24
2023-03-10T00:54:51.147Z,1.25
2023-03-10T00:55:51.193Z,1.23
2023-03-10T00:56:51.238Z,1.23
2023-03-10T00:57:51.283Z,1.25
2023-03-10T00:58:51.308Z,1.22
2023-03-10T00:59:51.899Z,1.23
2023-03-10T01:00:51.402Z,1.22
2023-03-10T01:01:51.523Z,1.22
2023-03-10T01:02:51.512Z,1.22
2023-03-10T01:03:51.529Z,1.22
2023-03-10T01:04:51.556Z,1.24
2023-03-10T01:05:51.597Z,1.20
2023-03-10T01:06:51.625Z,1.21
2023-03-10T01:07:51.663Z,1.21
2023-03-10T01:08:51.891Z,1.20
2023-03-10T01:09:51.733Z,1.22
2023-03-10T01:10:51.822Z,1.21
2023-03-10T01:11:51.808Z,1.21
2023-03-10T01:12:51.846Z,1.21
2023-03-10T01:13:51.888Z,1.20
2023-03-10T01:14:51.912Z,1.20
2023-03-10T01:15:51.987Z,1.18
2023-03-10T01:16:51.998Z,1.20
2023-03-10T01:17:52.046Z,1.20
2023-03-10T01:18:52.412Z,1.20
2023-03-10T01:19:52.123Z,1.19
2023-03-10T01:20:52.156Z,1.20
2023-03-10T01:21:52.207Z,1.18
2023-03-10T01:23:52.296Z,1.18
2023-03-10T01:24:52.321Z,1.19
2023-03-10T01:25:52.356Z,1.18
2023-03-10T01:26:52.397Z,1.18
2023-03-10T01:27:52.431Z,1.19
2023-03-10T01:28:52.548Z,1.19
2023-03-10T01:29:52.514Z,1.18
2023-03-10T01:30:52.546Z,1.18
2023-03-10T01:31:52.585Z,1.17
2023-03-10T01:32:52.700Z,1.17
2023-03-10T01:33:52.717Z,1.17
2023-03-10T01:34:52.834Z,1.17
2023-03-10T01:35:52.807Z,1.16
2023-03-10T01:36:52.784Z,1.17
2023-03-10T01:37:52.828Z,1.15
2023-03-10T01:38:52.897Z,1.15
2023-03-10T01:39:52.915Z,1.16
2023-03-10T01:40:53.077Z,1.15
2023-03-10T01:41:53.045Z,1.15
2023-03-10T01:42:53.025Z,1.14
2023-03-10T01:43:53.076Z,1.16
2023-03-10T01:44:53.104Z,1.14
2023-03-10T01:45:53.148Z,1.13
2023-03-10T01:46:53.379Z,1.17
2023-03-10T01:47:53.218Z,1.14
2023-03-10T01:48:53.406Z,1.15
2023-03-10T01:49:53.298Z,1.15
2023-03-10T01:50:53.345Z,1.14
2023-03-10T01:51:53.385Z,1.14
2023-03-10T01:52:53.425Z,1.13
2023-03-10T01:53:53.475Z,1.15
2023-03-10T01:54:53.509Z,1.12
2023-03-10T01:55:53.552Z,1.13
2023-03-10T01:56:53.591Z,1.14
2023-03-10T01:57:53.635Z,1.12
2023-03-10T01:58:53.684Z,1.15
2023-03-10T01:59:53.731Z,1.12
2023-03-10T02:00:53.799Z,1.12
2023-03-10T02:01:53.835Z,1.10
2023-03-10T02:03:53.909Z,1.11
2023-03-10T02:04:53.952Z,1.12
2023-03-10T02:05:54.014Z,1.10
2023-03-10T02:06:54.048Z,1.10
2023-03-10T02:08:54.139Z,1.11
2023-03-10T02:09:54.168Z,1.10
2023-03-10T02:10:54.216Z,1.13
2023-03-10T02:11:54.291Z,1.12
2023-03-10T02:12:54.301Z,1.10
2023-03-10T02:13:54.345Z,1.11
2023-03-10T02:14:54.401Z,1.11
2023-03-10T02:15:54.461Z,1.08
2023-03-10T02:16:54.490Z,1.13
2023-03-10T02:17:54.637Z,1.09
2023-03-10T02:18:54.567Z,1.11
2023-03-10T02:19:54.609Z,1.10
2023-03-10T02:20:54.665Z,1.09
2023-03-10T02:21:54.714Z,1.11
2023-03-10T02:22:54.754Z,1.11
2023-03-10T02:24:00.879Z,1.10
2023-03-10T02:24:55.793Z,1.10
2023-03-10T02:25:54.795Z,1.10
2023-03-10T02:26:54.809Z,1.09
2023-03-10T02:27:54.789Z,1.10
2023-03-10T02:28:54.773Z,1.11
2023-03-10T02:29:59.272Z,1.09
2023-03-10T02:30:55.749Z,1.09
2023-03-10T02:31:54.860Z,1.09
2023-03-10T02:32:54.783Z,1.08
2023-03-10T02:33:54.736Z,1.08
2023-03-10T02:34:54.745Z,1.07
2023-03-10T02:35:54.790Z,1.08
2023-03-10T02:36:54.728Z,1.06
2023-03-10T02:37:54.707Z,1.09
2023-03-10T02:38:54.702Z,1.05
2023-03-10T02:39:54.741Z,1.07
2023-03-10T02:40:54.782Z,1.05
2023-03-10T02:41:54.826Z,1.06
2023-03-10T02:42:54.873Z,1.08
2023-03-10T02:43:54.906Z,1.07
2023-03-10T02:44:54.979Z,1.09
2023-03-10T02:45:55.067Z,1.06
2023-03-10T02:46:55.036Z,1.05
2023-03-10T02:47:55.074Z,1.08
2023-03-10T02:48:55.194Z,1.06
2023-03-10T02:49:55.159Z,1.04
2023-03-10T02:50:55.264Z,1.05
2023-03-10T02:51:55.249Z,1.05
2023-03-10T02:52:55.285Z,1.03
2023-03-10T02:53:55.326Z,1.05
2023-03-10T02:54:55.377Z,1.04
2023-03-10T02:55:55.422Z,1.03
2023-03-10T02:56:55.469Z,1.05
2023-03-10T02:57:55.517Z,1.02
2023-03-10T02:58:55.619Z,1.04
2023-03-10T02:59:55.603Z,1.04
2023-03-10T03:00:55.750Z,1.03
2023-03-10T03:01:55.690Z,1.03
2023-03-10T03:02:55.736Z,1.03
2023-03-10T03:03:55.832Z,1.03
2023-03-10T03:04:55.826Z,1.04
2023-03-10T03:05:55.871Z,1.02
2023-03-10T03:06:55.908Z,1.02
2023-03-10T03:07:55.961Z,1.04
2023-03-10T03:08:56.005Z,1.02
2023-03-10T03:09:56.063Z,1.01
2023-03-10T03:10:56.094Z,1.02
2023-03-10T03:11:56.142Z,1.00
2023-03-10T03:12:56.194Z,1.02
2023-03-10T03:13:56.241Z,1.03
2023-03-10T03:14:56.288Z,1.01
2023-03-10T03:15:56.328Z,1.02
2023-03-10T03:16:56.438Z,1.03
2023-03-10T03:17:56.426Z,1.01
2023-03-10T03:18:56.471Z,1.00
2023-03-10T03:19:56.584Z,1.00
2023-03-10T03:20:56.571Z,1.01
2023-03-10T03:21:56.629Z,1.00
2023-03-10T03:22:56.670Z,1.01
2023-03-10T03:23:56.717Z,1.01
2023-03-10T03:24:56.760Z,1.03
2023-03-10T03:25:56.813Z,1.00
2023-03-10T03:26:56.864Z,1.02
2023-03-10T03:27:56.908Z,1.00
2023-03-10T03:28:56.964Z,1.00
2023-03-10T03:29:57.012Z,1.00
2023-03-10T03:30:57.048Z,1.02
2023-03-10T03:31:57.273Z,1.02
2023-03-10T03:32:57.143Z,1.02
2023-03-10T03:33:57.193Z,1.00
2023-03-10T03:34:57.231Z,0.98
2023-03-10T03:35:57.319Z,0.99
2023-03-10T03:36:57.940Z,1.00
2023-03-10T03:37:57.445Z,1.00
2023-03-10T03:38:57.433Z,0.99
2023-03-10T03:39:57.467Z,0.99
2023-03-10T03:40:57.520Z,1.01
2023-03-10T03:41:57.585Z,1.00
2023-03-10T03:42:57.636Z,0.98
2023-03-10T03:43:57.686Z,1.00
2023-03-10T03:44:57.783Z,0.98
2023-03-10T03:45:57.811Z,0.96
2023-03-10T03:46:57.866Z,0.95
2023-03-10T03:47:57.941Z,0.99
2023-03-10T03:48:57.937Z,0.98
2023-03-10T03:49:57.994Z,0.98
2023-03-10T03:50:58.049Z,0.98
2023-03-10T03:51:58.137Z,0.99
2023-03-10T03:52:58.447Z,0.98
2023-03-10T03:53:58.200Z,0.97
2023-03-10T03:54:58.260Z,0.97
2023-03-10T03:55:58.311Z,0.96
2023-03-10T03:56:58.374Z,0.97
2023-03-10T03:57:58.427Z,0.96
2023-03-10T03:58:58.473Z,0.96
2023-03-10T03:59:58.510Z,0.96
2023-03-10T04:00:58.567Z,0.97
2023-03-10T05:10:00.987Z,0.97
2023-03-10T05:32:01.476Z,0.94
2023-03-10T05:36:01.501Z,0.93
2023-03-10T05:42:00.989Z,0.92
2023-03-10T05:43:00.960Z,0.93
2023-03-10T05:45:01.267Z,0.94
2023-03-10T05:46:00.969Z,0.93
2023-03-10T05:47:01.006Z,0.94
2023-03-10T05:48:00.979Z,0.92
2023-03-10T05:49:00.993Z,0.93
2023-03-10T05:50:00.999Z,0.91
2023-03-10T05:51:01.017Z,0.90
2023-03-10T05:52:01.040Z,0.92
2023-03-10T05:53:01.052Z,0.91
2023-03-10T05:54:01.074Z,0.90
2023-03-10T05:55:01.090Z,0.92
2023-03-10T05:56:01.116Z,0.91
2023-03-10T05:57:01.126Z,0.91
2023-03-10T05:58:01.133Z,0.91
2023-03-10T05:59:01.140Z,0.92
2023-03-10T06:01:01.161Z,0.91
2023-03-10T06:05:01.233Z,0.91
2023-03-10T06:06:01.267Z,0.90
2023-03-10T06:07:01.279Z,0.92
2023-03-10T06:08:01.288Z,0.92
2023-03-10T06:09:01.290Z,0.91
2023-03-10T06:10:01.296Z,0.90
2023-03-10T06:11:01.308Z,0.90
2023-03-10T06:12:01.356Z,0.89
2023-03-10T06:13:01.383Z,0.90
2023-03-10T06:14:01.395Z,0.88
2023-03-10T06:15:01.465Z,0.90
2023-03-10T06:16:02.109Z,0.89
2023-03-10T06:17:01.452Z,0.89
2023-03-10T06:18:01.474Z,0.90
2023-03-10T06:19:01.481Z,0.91
2023-03-10T06:20:01.481Z,0.90
2023-03-10T06:21:01.504Z,0.91
2023-03-10T06:22:01.518Z,0.91
2023-03-10T06:23:01.529Z,0.89
2023-03-10T06:24:01.573Z,0.88
2023-03-10T06:25:01.558Z,0.90
2023-03-10T06:26:01.584Z,0.91
2023-03-10T06:27:01.612Z,0.89
2023-03-10T06:28:01.646Z,0.90
2023-03-10T06:29:01.645Z,0.91
2023-03-10T06:30:01.665Z,0.99
2023-03-10T06:31:01.695Z,1.00
2023-03-10T06:32:01.774Z,1.02
2023-03-10T06:33:01.828Z,1.04
2023-03-10T06:34:04.409Z,1.09
2023-03-10T06:35:01.720Z,1.13
2023-03-10T06:36:01.727Z,1.18
2023-03-10T06:37:01.692Z,1.25
2023-03-10T06:38:01.687Z,1.33
2023-03-10T06:39:01.683Z,1.40
2023-03-10T06:40:01.679Z,1.47
2023-03-10T06:41:01.670Z,1.55
2023-03-10T06:42:01.669Z,1.63
2023-03-10T06:43:01.701Z,1.76
2023-03-10T06:44:01.639Z,1.85
2023-03-10T06:45:01.656Z,1.99
2023-03-10T06:46:01.670Z,2.10
2023-03-10T06:47:01.629Z,2.24
2023-03-10T06:48:01.624Z,2.42
2023-03-10T06:49:01.620Z,2.54
2023-03-10T06:50:01.617Z,2.72
2023-03-10T06:51:01.659Z,2.85
2023-03-10T06:52:01.594Z,3.00
2023-03-10T06:53:01.591Z,3.25
2023-03-10T06:54:01.582Z,3.43
2023-03-10T06:55:01.646Z,3.60
2023-03-10T06:56:01.576Z,3.75
2023-03-10T06:57:01.570Z,4.01
2023-03-10T06:58:01.562Z,4.29
2023-03-10T06:59:01.549Z,4.47
2023-03-10T07:00:01.545Z,4.80
2023-03-10T07:01:01.562Z,5.11
2023-03-10T07:02:01.594Z,5.43
2023-03-10T07:03:01.531Z,5.82
2023-03-10T07:04:01.517Z,6.25
2023-03-10T07:05:01.608Z,6.59
2023-03-10T07:06:01.503Z,7.02
2023-03-10T07:07:01.552Z,7.41
2023-03-10T07:08:01.568Z,7.82
2023-03-10T07:09:01.482Z,8.13
2023-03-10T07:10:01.473Z,8.39
2023-03-10T07:11:01.459Z,8.66
2023-03-10T07:12:01.447Z,8.54
2023-03-10T07:13:01.445Z,9.00
2023-03-10T07:14:01.436Z,9.10
2023-03-10T07:15:01.441Z,9.40
2023-03-10T07:16:01.426Z,9.49
2023-03-10T07:17:01.496Z,9.77
2023-03-10T07:18:01.422Z,10.26
2023-03-10T07:19:01.402Z,10.42
2023-03-10T07:20:01.392Z,10.81
2023-03-10T07:21:01.385Z,10.97
2023-03-10T07:22:01.392Z,11.63
2023-03-10T07:23:01.379Z,11.56
2023-03-10T07:24:01.939Z,11.62
2023-03-10T07:25:01.364Z,11.68
2023-03-10T07:26:01.356Z,11.64
2023-03-10T07:27:01.353Z,11.39
2023-03-10T07:28:01.347Z,11.24
2023-03-10T07:29:01.391Z,11.34
2023-03-10T07:30:01.331Z,10.85
2023-03-10T07:31:01.399Z,10.86
2023-03-10T07:32:01.375Z,10.51
2023-03-10T07:33:01.306Z,10.41
2023-03-10T07:34:01.322Z,10.12
2023-03-10T07:35:01.286Z,9.92
2023-03-10T07:36:01.299Z,9.93
2023-03-10T07:37:01.280Z,9.81
2023-03-10T07:38:01.268Z,9.46
2023-03-10T07:39:01.265Z,9.26
2023-03-10T07:40:01.324Z,9.14
2023-03-10T07:41:02.108Z,8.87
2023-03-10T07:42:01.241Z,8.91
2023-03-10T07:43:01.280Z,8.86
2023-03-10T07:44:01.224Z,8.75
2023-03-10T07:45:01.230Z,8.48
2023-03-10T07:46:01.232Z,8.33
2023-03-10T07:47:01.202Z,8.29
2023-03-10T07:48:01.200Z,8.39
2023-03-10T07:49:01.199Z,8.28
2023-03-10T07:50:01.185Z,8.21
2023-03-10T07:51:01.170Z,8.19
2023-03-10T07:52:01.180Z,8.28
2023-03-10T07:53:01.169Z,8.22
2023-03-10T07:54:01.212Z,8.35
2023-03-10T07:55:01.321Z,8.37
2023-03-10T07:56:01.318Z,8.36
2023-03-10T07:57:01.363Z,8.25
2023-03-10T07:58:01.426Z,8.38
2023-03-10T07:59:01.492Z,8.28
2023-03-10T08:00:01.528Z,8.21
2023-03-10T08:01:01.589Z,8.05
2023-03-10T08:02:01.595Z,8.17
2023-03-10T08:03:01.650Z,8.16
2023-03-10T08:04:01.761Z,8.14
2023-03-10T08:05:01.718Z,7.93
2023-03-10T08:06:01.692Z,7.82
2023-03-10T08:07:01.708Z,7.98
2023-03-10T08:08:01.725Z,7.88
2023-03-10T08:09:01.774Z,8.01
2023-03-10T08:10:01.843Z,8.00
2023-03-10T08:11:01.835Z,7.98
2023-03-10T08:12:01.837Z,8.25
2023-03-10T08:13:01.952Z,8.39
2023-03-10T08:14:02.133Z,7.97
2023-03-10T08:15:01.946Z,8.13
2023-03-10T08:16:02.025Z,8.38
2023-03-10T08:17:01.959Z,7.97
2023-03-10T08:19:01.974Z,8.87
2023-03-10T08:20:02.010Z,8.80
2023-03-10T08:21:02.041Z,8.22
2023-03-10T08:22:02.049Z,7.82
2023-03-10T08:23:02.097Z,7.42
2023-03-10T08:24:02.128Z,7.29
2023-03-10T08:25:02.237Z,7.00
2023-03-10T08:26:02.187Z,6.89
2023-03-10T08:27:02.210Z,6.84
2023-03-10T08:28:02.211Z,6.59
2023-03-10T08:29:02.331Z,6.50
2023-03-10T08:30:02.237Z,6.49
2023-03-10T08:31:05.391Z,6.34
2023-03-10T08:32:02.376Z,6.42
2023-03-10T08:33:02.375Z,6.29
2023-03-10T08:34:02.330Z,6.22
2023-03-10T08:35:02.244Z,6.28
2023-03-10T08:36:02.328Z,6.15
2023-03-10T08:37:02.231Z,6.03
2023-03-10T08:38:02.241Z,6.11
2023-03-10T08:39:02.276Z,6.04
2023-03-10T08:41:02.212Z,6.04
2023-03-10T08:42:02.195Z,6.07
2023-03-10T08:43:02.244Z,6.08
2023-03-10T08:44:02.190Z,6.33
2023-03-10T08:45:02.196Z,6.10
2023-03-10T08:46:02.175Z,6.26
2023-03-10T08:47:02.309Z,6.22
2023-03-10T08:48:02.165Z,6.29
2023-03-10T08:49:02.155Z,6.35
2023-03-10T08:50:02.167Z,6.47
2023-03-10T08:51:02.153Z,6.47
2023-03-10T08:52:02.145Z,6.50
2023-03-10T08:53:02.208Z,6.55
2023-03-10T08:54:02.138Z,6.62
2023-03-10T08:55:02.196Z,6.60
2023-03-10T08:56:02.114Z,6.71
2023-03-10T08:57:02.115Z,6.62
2023-03-10T08:58:02.187Z,6.75
2023-03-10T08:59:02.115Z,6.60
2023-03-10T09:00:02.098Z,6.74
2023-03-10T09:01:02.091Z,6.86
2023-03-10T09:02:02.131Z,6.79
2023-03-10T09:03:02.116Z,6.79
2023-03-10T09:04:02.078Z,6.78
2023-03-10T09:05:02.080Z,6.99
2023-03-10T09:06:02.069Z,7.18
2023-03-10T09:07:02.136Z,7.34
2023-03-10T09:08:02.079Z,7.41
2023-03-10T09:09:03.050Z,7.43
2023-03-10T09:10:02.063Z,7.46
2023-03-10T09:11:02.065Z,7.58
2023-03-10T09:13:13.215Z,7.96
2023-03-10T09:14:03.054Z,7.15
2023-03-10T09:15:02.024Z,6.15
2023-03-10T09:16:02.135Z,5.53
2023-03-10T09:17:02.139Z,4.87
2023-03-10T09:18:02.055Z,4.16
2023-03-10T09:19:02.128Z,3.76
2023-03-10T09:20:02.002Z,3.33
2023-03-10T09:21:01.995Z,3.12
2023-03-10T09:22:01.983Z,3.12
2023-03-10T09:23:01.973Z,2.75
2023-03-10T09:24:02.579Z,2.42
2023-03-10T09:25:01.951Z,2.35
2023-03-10T09:26:01.944Z,2.25
2023-03-10T09:27:02.033Z,2.05
2023-03-10T09:28:02.065Z,0.85
2023-03-10T09:31:02.079Z,0.58
2023-03-10T09:32:02.141Z,0.57
2023-03-10T09:33:02.182Z,0.64
2023-03-10T09:34:02.155Z,0.70
2023-03-10T09:35:02.210Z,0.77
2023-03-10T09:36:06.770Z,0.81
2023-03-10T09:37:02.374Z,0.81
2023-03-10T09:38:02.234Z,0.82
2023-03-10T09:39:02.232Z,0.85
2023-03-10T09:40:03.334Z,0.88
2023-03-10T14:12:11.690Z,0.86
2023-03-10T14:14:11.704Z,0.88
2023-03-10T14:15:10.962Z,0.87
2023-03-10T14:16:11.014Z,0.90
2023-03-10T14:17:11.084Z,0.92
2023-03-10T14:18:11.107Z,0.92
2023-03-10T14:19:11.145Z,0.93
2023-03-10T14:20:11.187Z,0.92
2023-03-10T14:21:11.232Z,0.93
2023-03-10T14:22:11.334Z,0.92
2023-03-10T14:23:11.316Z,0.89
2023-03-10T14:24:11.364Z,0.94
2023-03-10T14:25:11.416Z,0.95
2023-03-10T14:26:11.468Z,0.94
2023-03-10T14:27:11.506Z,0.95
2023-03-10T14:28:11.542Z,0.93
2023-03-10T18:53:19.806Z,0.77
2023-03-10T18:54:18.928Z,0.78
2023-03-10T18:55:18.963Z,0.80
2023-03-10T18:56:18.995Z,0.78
2023-03-10T18:57:19.078Z,0.79
2023-03-10T18:58:19.048Z,0.78
2023-03-10T18:59:19.077Z,0.76
2023-03-10T19:00:19.140Z,0.75
2023-03-10T19:01:19.234Z,0.74
2023-03-10T19:02:19.161Z,0.76
2023-03-10T19:03:19.319Z,0.77
2023-03-10T19:04:19.799Z,0.77
2023-03-10T19:05:19.236Z,0.78
2023-03-10T19:06:19.359Z,0.76
2023-03-10T19:07:19.293Z,0.77
2023-03-10T19:08:19.325Z,0.76
2023-03-10T19:09:19.437Z,0.75
2023-03-10T19:10:19.377Z,0.73
2023-03-10T19:11:19.408Z,0.74
2023-03-10T19:12:19.431Z,0.75
2023-03-10T19:18:19.595Z,0.74
2023-03-10T19:40:20.196Z,0.68
2023-03-10T19:48:20.422Z,0.70
2023-03-10T23:32:28.932Z,0.74
2023-03-10T23:33:28.971Z,0.75
2023-03-10T23:34:29.015Z,0.73
2023-03-10T23:35:29.055Z,0.74
2023-03-10T23:36:29.109Z,0.76
2023-03-10T23:37:29.148Z,0.76
2023-03-10T23:38:29.214Z,0.75
2023-03-10T23:39:29.261Z,0.74
2023-03-10T23:40:29.424Z,0.75
2023-03-10T23:41:29.353Z,0.76
2023-03-10T23:42:29.394Z,0.76
2023-03-10T23:43:29.513Z,0.76
2023-03-10T23:44:29.480Z,0.74
2023-03-10T23:45:29.583Z,0.73
2023-03-10T23:46:29.575Z,0.72
2023-03-10T23:47:29.630Z,0.73
2023-03-10T23:48:29.688Z,0.72
2023-03-10T23:49:29.720Z,0.72
2023-03-10T23:50:29.867Z,0.71
2023-03-10T23:51:29.833Z,0.70
2023-03-10T23:52:29.892Z,0.72
2023-03-10T23:53:29.974Z,0.72
2023-03-10T23:54:30.005Z,0.71
2023-03-10T23:55:30.044Z,0.72
2023-03-10T23:56:30.100Z,0.70
2023-03-10T23:57:30.149Z,0.71
2023-03-10T23:58:30.202Z,0.71
2023-03-10T23:59:30.261Z,0.71
